Portada
METAR-TAF:

METAR-TAF

Aeroports :

Gove Peninsula, Austràlia

latitud: 12-16-12S, longitud: 136-49-06E, altitud: 62 m

Observació

L'informe es va fer fa 26 minuts, a les 16:00 UTC
Vent 4 kt del Sud/Sud-Est
Temperatura 24°C
Humitat 94%
Pressió 1010 hPa
Visibilitat 10 km o més

METAR: YPGV 201600Z AUTO 16004KT 9999 // NCD 24/23 Q1010 RF00.0/011.6

Hora: 01:56 (16:26 UTC)

Pronòstic

L'informe es va fer fa 4 hores i 23 minuts, a les 12:03 UTC
Pronòstic vàlid del 20 a les 14 UTC al 21 a les 02 UTC
Vent 6 kt del Est/Sud-Est
Visibilitat 10 km o més
Núvols disperses a una alçada de 2000 ft
A partir de les 20 a les 2300 UTC
Vent 15 kt amb direcció variable amb ràfegues de 25 kt
Visibilitat: 4000 m
Núvols disperses a una alçada de 2500 ft
Núvols disperses a una alçada de 1000 ft
xàfecs de pluja

TAF: YPGV 201203Z 2014/2102 12006KT 9999 SCT020 FM202300 12010KT 9999 SCT025 INTER 2022/2102 VRB15G25KT 4000 SHRA SCT010

Observacions i pronòstics meteorològics de més de 4000 aeroports (METAR i TAF).

Les estacions disponibles són els punts grocs i vermells al mapa.

Posi el ratolí al punt desitjat per veure el nom de l'estació.

Feu clic per veure les observacions i els pronòstics meteorològics.

Per canviar el mapa: feu clic els botons verds amb una creu de color negre per apropar; al botó verd amb un guió per allunyar la imatge; o en les fletxes verdes per a mapes adjacents.


METAR-TAF: